createdAt,value
2022-09-03T00:01:15.518Z,24.71
2022-09-03T00:03:51.855Z,24.81
2022-09-03T00:06:48.245Z,24.91
2022-09-03T00:09:38.921Z,24.76
2022-09-03T00:12:10.554Z,24.69
2022-09-03T00:14:40.244Z,24.68
2022-09-03T00:17:10.324Z,24.51
2022-09-03T00:19:42.318Z,24.26
2022-09-03T00:22:11.436Z,24.47
2022-09-03T00:24:41.910Z,24.42
2022-09-03T00:27:19.161Z,24.48
2022-09-03T00:29:52.448Z,24.60
2022-09-03T00:32:38.528Z,24.65
2022-09-03T00:35:10.876Z,24.68
2022-09-03T00:38:06.299Z,24.66
2022-09-03T00:40:45.645Z,24.27
2022-09-03T00:43:15.425Z,24.08
2022-09-03T00:45:45.701Z,24.15
2022-09-03T00:48:28.017Z,24.36
2022-09-03T00:51:01.053Z,24.02
2022-09-03T00:53:31.195Z,24.22
2022-09-03T00:56:04.951Z,24.38
2022-09-03T00:58:38.238Z,24.32
2022-09-03T01:01:10.826Z,24.24
2022-09-03T01:03:42.381Z,24.22
2022-09-03T01:06:17.109Z,24.30
2022-09-03T01:09:05.117Z,24.35
2022-09-03T01:11:41.869Z,24.50
2022-09-03T01:14:22.664Z,24.50
2022-09-03T01:17:03.462Z,24.54
2022-09-03T01:19:42.576Z,24.66
2022-09-03T01:22:10.225Z,24.60
2022-09-03T01:24:59.352Z,24.61
2022-09-03T01:27:39.471Z,24.71
2022-09-03T01:30:12.896Z,24.73
2022-09-03T01:32:43.420Z,24.53
2022-09-03T01:35:16.650Z,24.55
2022-09-03T01:37:59.829Z,24.45
2022-09-03T01:40:30.760Z,24.47
2022-09-03T01:43:04.833Z,24.46
2022-09-03T01:45:32.571Z,24.24
2022-09-03T01:48:15.123Z,24.46
2022-09-03T01:50:51.432Z,24.47
2022-09-03T01:53:32.305Z,24.22
2022-09-03T01:56:11.149Z,24.30
2022-09-03T01:58:49.477Z,24.23
2022-09-03T02:01:19.701Z,24.30
2022-09-03T02:03:47.359Z,24.05
2022-09-03T02:06:20.824Z,23.96
2022-09-03T02:08:54.034Z,23.80
2022-09-03T02:11:21.349Z,24.04
2022-09-03T02:13:49.966Z,24.07
2022-09-03T02:16:20.423Z,24.22
2022-09-03T02:18:50.686Z,23.20
2022-09-03T02:21:20.108Z,22.86
2022-09-03T02:23:47.493Z,22.77
2022-09-03T02:26:16.213Z,22.38
2022-09-03T02:28:43.483Z,22.38
2022-09-03T02:31:19.147Z,22.65
2022-09-03T02:33:46.894Z,22.19
2022-09-03T02:36:15.778Z,21.89
2022-09-03T02:38:43.466Z,22.63
2022-09-03T02:41:14.142Z,22.96
2022-09-03T02:44:00.239Z,22.50
2022-09-03T02:46:30.313Z,22.09
2022-09-03T02:48:57.879Z,21.88
2022-09-03T02:51:25.074Z,22.50
2022-09-03T02:53:54.108Z,23.08
2022-09-03T02:56:24.460Z,23.41
2022-09-03T02:58:51.780Z,23.60
2022-09-03T03:01:23.922Z,23.72
2022-09-03T03:03:51.746Z,23.83
2022-09-03T03:06:21.030Z,23.86
2022-09-03T03:08:48.940Z,23.81
2022-09-03T03:11:18.244Z,23.97
2022-09-03T03:13:45.900Z,23.97
2022-09-03T03:16:13.792Z,23.71
2022-09-03T03:18:41.181Z,23.57
2022-09-03T03:21:12.715Z,23.69
2022-09-03T03:23:40.037Z,23.69
2022-09-03T03:26:09.115Z,23.79
2022-09-03T03:28:38.161Z,23.56
2022-09-03T03:31:09.854Z,23.83
2022-09-03T03:33:37.412Z,23.88
2022-09-03T03:36:08.319Z,23.53
2022-09-03T03:38:38.348Z,22.64
2022-09-03T03:41:18.337Z,22.45
2022-09-03T03:43:48.857Z,22.74
2022-09-03T03:46:16.224Z,22.73
2022-09-03T03:48:44.003Z,23.13
2022-09-03T03:54:01.008Z,23.53
2022-09-03T03:56:32.743Z,23.61
2022-09-03T03:59:00.065Z,23.72
2022-09-03T04:01:30.551Z,23.77
2022-09-03T04:04:00.015Z,23.75
2022-09-03T04:06:30.005Z,23.74
2022-09-03T04:08:57.223Z,23.31
2022-09-03T04:11:24.689Z,23.27
2022-09-03T04:13:52.289Z,23.35
2022-09-03T04:16:21.294Z,23.45
2022-09-03T04:18:56.359Z,22.84
2022-09-03T04:21:24.501Z,22.96
2022-09-03T04:23:52.873Z,23.31
2022-09-03T04:26:40.780Z,23.32
2022-09-03T04:29:09.309Z,23.25
2022-09-03T04:31:37.369Z,23.14
2022-09-03T04:34:06.554Z,23.21
2022-09-03T04:36:37.921Z,23.34
2022-09-03T04:39:07.637Z,23.28
2022-09-03T04:41:38.200Z,23.29
2022-09-03T04:44:08.715Z,23.45
2022-09-03T04:46:36.030Z,23.55
2022-09-03T04:49:03.408Z,23.64
2022-09-03T04:51:31.586Z,23.21
2022-09-03T04:54:01.920Z,23.27
2022-09-03T04:56:33.214Z,23.43
2022-09-03T04:59:04.696Z,23.63
2022-09-03T05:01:36.717Z,23.78
2022-09-03T05:04:07.377Z,23.82
2022-09-03T05:06:37.755Z,23.32
2022-09-03T05:09:05.557Z,23.37
2022-09-03T05:11:35.420Z,23.31
2022-09-03T05:14:02.710Z,23.36
2022-09-03T05:17:24.474Z,23.52
2022-09-03T05:19:28.030Z,23.56
2022-09-03T05:21:57.840Z,23.35
2022-09-03T05:24:37.272Z,23.44
2022-09-03T05:27:06.866Z,23.60
2022-09-03T05:29:34.143Z,23.57
2022-09-03T05:32:01.423Z,23.57
2022-09-03T05:34:28.664Z,23.59
2022-09-03T05:37:00.504Z,23.49
2022-09-03T05:39:27.938Z,23.56
2022-09-03T05:41:55.216Z,23.63
2022-09-03T05:44:23.819Z,23.79
2022-09-03T05:46:53.563Z,23.90
2022-09-03T05:49:23.134Z,24.00
2022-09-03T05:51:50.873Z,24.09
2022-09-03T05:54:18.319Z,23.77
2022-09-03T05:56:51.951Z,23.75
2022-09-03T05:59:21.053Z,23.75
2022-09-03T06:02:11.331Z,23.54
2022-09-03T06:04:39.581Z,23.51
2022-09-03T06:07:07.017Z,23.42
2022-09-03T06:09:34.203Z,23.74
2022-09-03T06:12:04.014Z,23.51
2022-09-03T06:14:33.329Z,23.75
2022-09-03T06:17:00.665Z,23.95
2022-09-03T06:19:28.289Z,23.67
2022-09-03T06:22:01.984Z,23.54
2022-09-03T06:24:29.969Z,23.64
2022-09-03T06:26:59.628Z,23.94
2022-09-03T06:29:27.678Z,24.15
2022-09-03T06:31:55.995Z,24.24
2022-09-03T06:34:25.638Z,24.12
2022-09-03T06:36:56.244Z,23.90
2022-09-03T06:39:24.784Z,24.01
2022-09-03T06:41:52.267Z,24.12
2022-09-03T06:44:26.903Z,23.45
2022-09-03T06:47:02.771Z,23.37
2022-09-03T06:49:31.481Z,23.41
2022-09-03T06:51:58.847Z,23.67
2022-09-03T06:54:27.732Z,23.49
2022-09-03T06:56:55.638Z,23.48
2022-09-03T06:59:22.918Z,23.56
2022-09-03T07:01:50.266Z,23.70
2022-09-03T07:04:20.125Z,23.74
2022-09-03T07:06:47.959Z,23.69
2022-09-03T07:09:21.031Z,23.56
2022-09-03T07:11:49.283Z,23.69
2022-09-03T07:14:19.755Z,23.52
2022-09-03T07:16:47.852Z,23.48
2022-09-03T07:19:15.392Z,23.07
2022-09-03T07:21:55.928Z,23.20
2022-09-03T07:24:23.513Z,23.28
2022-09-03T07:26:50.809Z,23.46
2022-09-03T07:29:20.697Z,23.60
2022-09-03T07:31:52.121Z,23.82
2022-09-03T07:34:20.441Z,23.99
2022-09-03T07:36:51.333Z,24.17
2022-09-03T07:39:19.925Z,24.13
2022-09-03T07:41:48.413Z,23.88
2022-09-03T07:44:19.520Z,24.15
2022-09-03T07:50:39.190Z,24.22
2022-09-03T07:53:06.549Z,24.24
2022-09-03T07:55:33.945Z,24.13
2022-09-03T07:58:01.238Z,24.34
2022-09-03T08:00:28.627Z,24.58
2022-09-03T08:03:01.561Z,24.68
2022-09-03T08:05:36.293Z,24.75
2022-09-03T08:08:04.250Z,24.94
2022-09-03T08:10:38.569Z,24.65
2022-09-03T08:13:10.720Z,24.87
2022-09-03T08:15:56.195Z,25.23
2022-09-03T08:18:27.279Z,25.36
2022-09-03T08:20:59.277Z,25.39
2022-09-03T08:23:28.787Z,25.04
2022-09-03T08:26:02.099Z,24.99
2022-09-03T08:28:30.047Z,24.84
2022-09-03T08:30:59.641Z,24.86
2022-09-03T08:33:38.625Z,25.32
2022-09-03T08:36:07.226Z,25.25
2022-09-03T08:38:35.218Z,25.09
2022-09-03T08:41:03.885Z,25.09
2022-09-03T08:43:33.205Z,25.16
2022-09-03T08:48:46.638Z,25.70
2022-09-03T08:51:14.531Z,25.66
2022-09-03T08:53:57.587Z,25.75
2022-09-03T08:56:29.677Z,25.87
2022-09-03T08:58:57.082Z,25.80
2022-09-03T09:01:33.617Z,25.61
2022-09-03T09:04:12.414Z,25.52
2022-09-03T09:06:42.255Z,25.98
2022-09-03T09:09:23.770Z,25.69
2022-09-03T09:11:53.974Z,26.03
2022-09-03T09:14:30.144Z,26.08
2022-09-03T09:17:15.727Z,26.33
2022-09-03T09:19:46.158Z,25.89
2022-09-03T09:22:25.411Z,25.71
2022-09-03T09:24:52.655Z,25.65
2022-09-03T09:27:27.130Z,25.71
2022-09-03T09:29:54.412Z,25.47
2022-09-03T09:32:21.908Z,25.47
2022-09-03T09:34:52.558Z,25.59
2022-09-03T09:37:22.589Z,25.51
2022-09-03T09:39:57.269Z,25.54
2022-09-03T09:42:27.722Z,25.46
2022-09-03T09:45:00.248Z,25.40
2022-09-03T09:47:34.592Z,25.68
2022-09-03T09:50:05.263Z,26.22
2022-09-03T09:52:35.222Z,26.04
2022-09-03T09:55:09.819Z,26.19
2022-09-03T09:57:39.416Z,25.92
2022-09-03T10:00:17.690Z,26.01
2022-09-03T10:02:54.790Z,25.84
2022-09-03T10:05:22.299Z,26.24
2022-09-03T10:08:04.495Z,26.71
2022-09-03T10:10:37.973Z,26.69
2022-09-03T10:13:10.840Z,26.95
2022-09-03T10:15:46.074Z,26.98
2022-09-03T10:18:16.550Z,26.95
2022-09-03T10:20:51.062Z,26.64
2022-09-03T10:23:25.764Z,26.77
2022-09-03T10:26:07.307Z,26.55
2022-09-03T10:28:39.421Z,26.62
2022-09-03T10:31:19.767Z,26.35
2022-09-03T10:33:55.453Z,26.78
2022-09-03T10:36:26.944Z,26.68
2022-09-03T10:39:14.382Z,26.01
2022-09-03T10:42:03.685Z,26.51
2022-09-03T10:44:35.170Z,26.56
2022-09-03T10:47:09.779Z,26.92
2022-09-03T10:49:49.629Z,26.37
2022-09-03T10:52:25.756Z,25.87
2022-09-03T10:55:18.457Z,26.57
2022-09-03T10:57:50.892Z,27.26
2022-09-03T11:00:41.251Z,27.91
2022-09-03T11:03:21.366Z,27.87
2022-09-03T11:05:51.594Z,28.30
2022-09-03T11:08:25.115Z,28.27
2022-09-03T11:10:54.000Z,27.14
2022-09-03T11:13:28.640Z,28.28
2022-09-03T11:16:01.983Z,29.14
2022-09-03T11:18:46.932Z,29.61
2022-09-03T11:21:14.923Z,29.99
2022-09-03T11:23:49.144Z,30.23
2022-09-03T11:26:23.186Z,30.18
2022-09-03T11:28:58.669Z,30.94
2022-09-03T11:31:57.828Z,31.05
2022-09-03T11:34:32.208Z,30.77
2022-09-03T11:37:21.233Z,30.77
2022-09-03T11:40:07.909Z,29.16
2022-09-03T11:42:38.872Z,29.29
2022-09-03T11:45:14.765Z,31.45
2022-09-03T11:47:45.733Z,31.56
2022-09-03T11:50:23.577Z,29.77
2022-09-03T11:52:54.257Z,29.45
2022-09-03T11:55:44.933Z,28.85
2022-09-03T11:58:14.170Z,29.78
2022-09-03T12:00:44.606Z,32.45
2022-09-03T12:03:16.054Z,33.57
2022-09-03T12:05:48.732Z,31.72
2022-09-03T12:08:34.807Z,31.32
2022-09-03T12:11:26.143Z,32.11
2022-09-03T12:14:06.479Z,31.20
2022-09-03T12:16:38.996Z,30.29
2022-09-03T12:19:35.525Z,30.42
2022-09-03T12:22:04.603Z,32.39
2022-09-03T12:24:38.317Z,34.43
2022-09-03T12:27:08.112Z,34.86
2022-09-03T12:30:00.080Z,34.26
2022-09-03T12:32:37.630Z,32.40
2022-09-03T12:38:44.458Z,29.86
2022-09-03T12:41:29.417Z,29.55
2022-09-03T12:44:39.995Z,29.68
2022-09-03T12:49:58.935Z,30.16
2022-09-03T12:52:29.458Z,31.57
2022-09-03T12:55:05.291Z,31.91
2022-09-03T12:57:36.661Z,33.15
2022-09-03T13:00:07.127Z,33.44
2022-09-03T13:02:37.344Z,33.68
2022-09-03T13:05:07.763Z,34.01
2022-09-03T13:07:37.339Z,32.80
2022-09-03T13:10:07.850Z,32.13
2022-09-03T13:12:35.759Z,32.73
2022-09-03T13:15:07.112Z,33.34
2022-09-03T13:17:52.972Z,32.20
2022-09-03T13:20:22.843Z,32.31
2022-09-03T13:23:06.995Z,30.07
2022-09-03T13:25:36.083Z,29.70
2022-09-03T13:28:14.649Z,29.09
2022-09-03T13:30:51.322Z,28.80
2022-09-03T13:33:22.024Z,28.66
2022-09-03T13:36:04.191Z,28.07
2022-09-03T13:38:48.969Z,27.80
2022-09-03T13:41:25.265Z,28.73
2022-09-03T13:43:54.891Z,28.46
2022-09-03T13:46:46.470Z,28.42
2022-09-03T13:50:01.829Z,27.64
2022-09-03T13:52:43.062Z,28.16
2022-09-03T13:55:22.560Z,28.51
2022-09-03T13:57:51.251Z,27.46
2022-09-03T14:00:44.818Z,27.42
2022-09-03T14:03:16.290Z,27.73
2022-09-03T14:05:56.312Z,27.74
2022-09-03T14:08:35.470Z,27.53
2022-09-03T14:11:12.823Z,27.34
2022-09-03T14:14:19.869Z,27.64
2022-09-03T14:16:47.142Z,27.66
2022-09-03T14:19:27.045Z,27.39
2022-09-03T14:22:04.781Z,27.39
2022-09-03T14:24:48.665Z,27.20
2022-09-03T14:27:25.364Z,27.29
2022-09-03T14:29:59.257Z,27.45
2022-09-03T14:32:52.958Z,27.46
2022-09-03T14:35:36.825Z,27.42
2022-09-03T14:38:10.170Z,27.45
2022-09-03T14:40:42.662Z,27.24
2022-09-03T14:43:16.003Z,26.84
2022-09-03T14:45:52.881Z,26.87
2022-09-03T14:48:31.078Z,26.85
2022-09-03T14:51:11.130Z,26.99
2022-09-03T14:53:44.955Z,27.05
2022-09-03T14:56:15.356Z,26.94
2022-09-03T14:58:48.535Z,27.28
2022-09-03T15:01:18.913Z,27.59
2022-09-03T15:03:49.870Z,27.04
2022-09-03T15:06:30.741Z,26.78
2022-09-03T15:09:18.861Z,26.41
2022-09-03T15:11:49.112Z,26.42
2022-09-03T15:14:25.208Z,26.50
2022-09-03T15:16:55.489Z,26.62
2022-09-03T15:19:37.427Z,26.82
2022-09-03T15:22:38.008Z,26.60
2022-09-03T15:25:15.747Z,26.57
2022-09-03T15:27:49.107Z,26.51
2022-09-03T15:30:46.248Z,26.65
2022-09-03T15:33:16.433Z,26.64
2022-09-03T15:35:52.989Z,26.56
2022-09-03T15:38:28.813Z,26.53
2022-09-03T15:41:31.608Z,26.35
2022-09-03T15:44:00.248Z,26.17
2022-09-03T15:46:34.709Z,26.30
2022-09-03T15:49:08.953Z,26.42
2022-09-03T15:51:37.074Z,26.27
2022-09-03T15:54:20.065Z,26.19
2022-09-03T15:56:55.928Z,26.09
2022-09-03T15:59:32.399Z,26.41
2022-09-03T16:02:04.417Z,26.41
2022-09-03T16:04:50.659Z,26.46
2022-09-03T16:07:26.007Z,26.48
2022-09-03T16:10:28.227Z,26.39
2022-09-03T16:13:14.834Z,26.65
2022-09-03T16:15:52.071Z,26.91
2022-09-03T16:18:26.484Z,27.06
2022-09-03T16:21:03.472Z,26.89
2022-09-03T16:24:08.641Z,26.89
2022-09-03T16:26:42.214Z,26.87
2022-09-03T16:29:14.614Z,26.73
2022-09-03T16:32:05.800Z,26.71
2022-09-03T16:34:42.810Z,26.87
2022-09-03T16:37:39.798Z,26.98
2022-09-03T16:40:26.465Z,26.90
2022-09-03T16:43:05.135Z,26.59
2022-09-03T16:45:44.155Z,26.89
2022-09-03T16:48:17.899Z,26.63
2022-09-03T16:50:46.117Z,26.40
2022-09-03T16:53:28.749Z,26.25
2022-09-03T16:56:07.711Z,26.45
2022-09-03T16:58:35.342Z,26.37
2022-09-03T17:01:08.797Z,26.41
2022-09-03T17:03:53.645Z,26.41
2022-09-03T17:06:40.304Z,26.21
2022-09-03T17:09:15.570Z,26.16
2022-09-03T17:11:42.791Z,26.34
2022-09-03T17:14:28.696Z,26.44
2022-09-03T17:17:09.639Z,26.45
2022-09-03T17:19:54.078Z,26.27
2022-09-03T17:22:51.238Z,26.34
2022-09-03T17:25:27.523Z,26.36
2022-09-03T17:27:57.757Z,26.44
2022-09-03T17:30:43.649Z,26.38
2022-09-03T17:33:27.611Z,26.40
2022-09-03T17:36:18.733Z,26.36
2022-09-03T17:39:01.411Z,26.36
2022-09-03T17:41:33.987Z,26.08
2022-09-03T17:44:01.695Z,26.18
2022-09-03T17:46:32.001Z,26.32
2022-09-03T17:49:02.669Z,26.13
2022-09-03T17:51:32.188Z,26.07
2022-09-03T17:54:05.679Z,26.08
2022-09-03T17:56:36.027Z,25.82
2022-09-03T17:59:10.264Z,25.65
2022-09-03T18:01:38.041Z,25.62
2022-09-03T18:04:11.647Z,25.50
2022-09-03T18:06:41.971Z,25.49
2022-09-03T18:09:09.191Z,25.37
2022-09-03T18:11:55.332Z,25.29
2022-09-03T18:14:29.378Z,25.30
2022-09-03T18:17:05.413Z,25.37
2022-09-03T18:20:00.665Z,25.24
2022-09-03T18:23:05.284Z,25.24
2022-09-03T18:25:51.194Z,25.31
2022-09-03T18:28:37.068Z,25.29
2022-09-03T18:31:23.344Z,25.66
2022-09-03T18:34:11.788Z,25.84
2022-09-03T18:36:57.557Z,25.70
2022-09-03T18:39:45.671Z,25.47
2022-09-03T18:42:50.683Z,25.38
2022-09-03T18:49:09.500Z,25.87
2022-09-03T18:51:58.643Z,25.87
2022-09-03T18:55:06.753Z,25.63
2022-09-03T18:58:14.345Z,25.84
2022-09-03T19:01:02.652Z,25.74
2022-09-03T19:03:58.182Z,25.77
2022-09-03T19:06:58.302Z,25.97
2022-09-03T19:09:44.386Z,25.67
2022-09-03T19:12:51.798Z,25.36
2022-09-03T19:15:49.727Z,25.13
2022-09-03T19:18:55.799Z,24.96
2022-09-03T19:21:53.053Z,25.04
2022-09-03T19:24:42.193Z,24.88
2022-09-03T19:27:54.329Z,25.04
2022-09-03T19:30:58.305Z,25.13
2022-09-03T19:33:54.127Z,24.99
2022-09-03T19:36:43.711Z,25.29
2022-09-03T19:39:38.988Z,25.10
2022-09-03T19:42:27.381Z,24.83
2022-09-03T19:45:16.661Z,25.05
2022-09-03T19:48:23.278Z,24.88
2022-09-03T19:51:26.370Z,24.75
2022-09-03T19:54:12.044Z,25.15
2022-09-03T19:57:05.643Z,25.01
2022-09-03T19:59:59.548Z,25.30
2022-09-03T20:02:47.949Z,25.39
2022-09-03T20:05:37.455Z,25.69
2022-09-03T20:08:26.143Z,25.44
2022-09-03T20:10:56.784Z,25.29
2022-09-03T20:13:24.052Z,25.41
2022-09-03T20:16:13.954Z,25.42
2022-09-03T20:19:00.187Z,25.63
2022-09-03T20:21:47.681Z,25.74
2022-09-03T20:24:15.027Z,25.70
2022-09-03T20:27:02.019Z,25.69
2022-09-03T20:29:42.276Z,25.77
2022-09-03T20:32:28.442Z,25.67
2022-09-03T20:35:04.038Z,25.57
2022-09-03T20:37:34.432Z,25.59
2022-09-03T20:40:22.076Z,25.47
2022-09-03T20:42:59.054Z,25.07
2022-09-03T20:45:47.462Z,25.01
2022-09-03T20:48:36.772Z,24.99
2022-09-03T20:51:10.241Z,25.26
2022-09-03T20:53:50.187Z,25.13
2022-09-03T20:56:23.520Z,25.21
2022-09-03T20:59:11.191Z,24.79
2022-09-03T21:01:45.270Z,24.88
2022-09-03T21:04:17.973Z,25.07
2022-09-03T21:06:50.995Z,25.25
2022-09-03T21:12:29.529Z,25.34
2022-09-03T21:15:14.779Z,25.26
2022-09-03T21:17:51.643Z,25.35
2022-09-03T21:20:33.025Z,25.39
2022-09-03T21:23:09.179Z,25.43
2022-09-03T21:26:02.400Z,25.20
2022-09-03T21:28:32.061Z,24.90
2022-09-03T21:31:01.355Z,24.97
2022-09-03T21:33:32.945Z,24.87
2022-09-03T21:36:08.604Z,25.09
2022-09-03T21:38:39.583Z,25.28
2022-09-03T21:41:06.918Z,25.14
2022-09-03T21:43:46.272Z,24.84
2022-09-03T21:46:49.464Z,24.78
2022-09-03T21:49:36.974Z,25.03
2022-09-03T21:52:06.488Z,25.33
2022-09-03T21:54:34.238Z,25.51
2022-09-03T21:57:07.477Z,25.53
2022-09-03T21:59:37.810Z,25.50
2022-09-03T22:02:05.057Z,25.50
2022-09-03T22:07:23.666Z,25.37
2022-09-03T22:10:09.343Z,25.11
2022-09-03T22:12:50.359Z,24.92
2022-09-03T22:15:17.782Z,24.95
2022-09-03T22:17:50.951Z,25.11
2022-09-03T22:20:18.381Z,25.14
2022-09-03T22:22:56.437Z,25.06
2022-09-03T22:25:40.578Z,25.26
2022-09-03T22:28:11.312Z,25.03
2022-09-03T22:31:01.954Z,24.67
2022-09-03T22:33:32.424Z,24.85
2022-09-03T22:36:00.251Z,25.03
2022-09-03T22:38:37.079Z,25.07
2022-09-03T22:41:23.090Z,24.90
2022-09-03T22:44:12.700Z,24.77
2022-09-03T22:47:01.558Z,24.70
2022-09-03T22:49:32.428Z,24.83
2022-09-03T22:52:03.476Z,24.76
2022-09-03T22:54:45.983Z,24.77
2022-09-03T22:57:15.372Z,24.71
2022-09-03T22:59:48.658Z,24.64
2022-09-03T23:02:23.310Z,24.80
2022-09-03T23:04:59.595Z,24.79
2022-09-03T23:07:34.997Z,24.78
2022-09-03T23:10:05.346Z,24.77
2022-09-03T23:12:39.436Z,24.80
2022-09-03T23:15:11.456Z,24.75
2022-09-03T23:17:40.557Z,24.88
2022-09-03T23:22:46.133Z,24.76
2022-09-03T23:25:22.566Z,24.91
2022-09-03T23:28:10.061Z,24.83
2022-09-03T23:30:37.391Z,24.99
2022-09-03T23:33:08.804Z,25.05
2022-09-03T23:35:39.219Z,25.03
2022-09-03T23:38:11.570Z,25.03
2022-09-03T23:40:38.913Z,24.92
2022-09-03T23:43:21.215Z,24.86
2022-09-03T23:46:05.805Z,24.86
2022-09-03T23:48:39.190Z,24.93
2022-09-03T23:51:25.452Z,24.95
2022-09-03T23:54:01.658Z,24.97
2022-09-03T23:56:28.965Z,24.97
2022-09-03T23:59:02.333Z,24.95
